createdAt,value
2018-07-06T00:02:00.999Z,20.82
2018-07-06T00:04:56.517Z,20.83
2018-07-06T00:07:49.816Z,20.84
2018-07-06T00:10:42.886Z,20.82
2018-07-06T00:13:35.520Z,20.81
2018-07-06T00:16:27.118Z,20.82
2018-07-06T00:19:20.558Z,20.84
2018-07-06T00:22:13.130Z,20.83
2018-07-06T00:25:04.666Z,20.84
2018-07-06T00:27:56.219Z,20.82
2018-07-06T00:30:47.580Z,20.80
2018-07-06T00:33:41.604Z,20.80
2018-07-06T00:36:34.269Z,20.78
2018-07-06T00:39:26.956Z,20.79
2018-07-06T00:42:30.259Z,20.79
2018-07-06T00:45:22.319Z,20.80
2018-07-06T00:48:13.124Z,20.82
2018-07-06T00:51:06.779Z,20.82
2018-07-06T00:53:59.124Z,20.83
2018-07-06T00:56:51.142Z,20.82
2018-07-06T00:59:42.300Z,20.82
2018-07-06T01:02:34.500Z,20.79
2018-07-06T01:05:26.025Z,20.78
2018-07-06T01:08:23.857Z,20.78
2018-07-06T01:11:16.199Z,20.76
2018-07-06T01:14:08.839Z,20.75
2018-07-06T01:17:00.782Z,20.72
2018-07-06T01:19:52.159Z,20.72
2018-07-06T01:22:42.917Z,20.71
2018-07-06T01:25:35.475Z,20.68
2018-07-06T01:28:26.779Z,20.70
2018-07-06T01:31:18.659Z,20.69
2018-07-06T01:34:12.016Z,20.70
2018-07-06T01:37:03.739Z,20.68
2018-07-06T01:39:56.021Z,20.68
2018-07-06T01:42:47.535Z,20.69
2018-07-06T01:45:38.359Z,20.71
2018-07-06T01:51:29.656Z,20.74
2018-07-06T01:54:21.639Z,20.74
2018-07-06T01:57:12.999Z,20.72
2018-07-06T02:00:05.622Z,20.76
2018-07-06T02:02:56.720Z,20.78
2018-07-06T02:05:48.159Z,20.77
2018-07-06T02:08:40.557Z,20.76
2018-07-06T02:11:32.835Z,20.75
2018-07-06T02:14:24.440Z,20.77
2018-07-06T02:17:18.638Z,20.77
2018-07-06T02:20:10.139Z,20.77
2018-07-06T02:23:10.359Z,20.76
2018-07-06T02:26:02.638Z,20.76
2018-07-06T02:28:56.380Z,20.77
2018-07-06T02:31:48.562Z,20.77
2018-07-06T02:34:40.799Z,20.77
2018-07-06T02:37:34.786Z,20.77
2018-07-06T02:40:26.280Z,20.76
2018-07-06T02:43:18.462Z,20.76
2018-07-06T02:46:10.497Z,20.74
2018-07-06T02:49:00.859Z,20.75
2018-07-06T02:51:52.820Z,20.72
2018-07-06T02:54:46.555Z,20.71
2018-07-06T02:57:39.300Z,20.72
2018-07-06T03:00:32.746Z,20.69
2018-07-06T03:03:23.921Z,20.68
2018-07-06T03:06:15.599Z,20.66
2018-07-06T03:09:08.378Z,20.63
2018-07-06T03:12:01.022Z,20.63
2018-07-06T03:14:53.085Z,20.61
2018-07-06T03:17:44.720Z,20.60
2018-07-06T03:20:37.816Z,20.59
2018-07-06T03:23:36.796Z,20.58
2018-07-06T03:26:29.724Z,20.59
2018-07-06T03:29:23.460Z,20.58
2018-07-06T03:32:16.918Z,20.60
2018-07-06T03:35:16.518Z,20.61
2018-07-06T03:38:09.045Z,20.61
2018-07-06T03:41:00.179Z,20.65
2018-07-06T03:43:52.514Z,20.66
2018-07-06T03:46:43.624Z,20.66
2018-07-06T03:49:41.659Z,20.65
2018-07-06T03:52:32.022Z,20.64
2018-07-06T03:55:25.367Z,20.66
2018-07-06T03:58:15.658Z,20.63
2018-07-06T04:01:08.780Z,20.63
2018-07-06T04:04:14.058Z,20.64
2018-07-06T04:07:07.098Z,20.59
2018-07-06T04:09:58.906Z,20.54
2018-07-06T04:12:51.539Z,20.46
2018-07-06T04:15:43.346Z,20.44
2018-07-06T04:18:38.346Z,20.42
2018-07-06T04:21:32.222Z,20.41
2018-07-06T04:24:26.321Z,20.43
2018-07-06T04:27:19.363Z,20.47
2018-07-06T04:30:11.438Z,20.47
2018-07-06T04:33:03.003Z,20.45
2018-07-06T04:35:53.763Z,20.45
2018-07-06T04:38:45.657Z,20.50
2018-07-06T04:41:36.582Z,20.51
2018-07-06T04:44:27.223Z,20.52
2018-07-06T04:47:21.039Z,20.53
2018-07-06T04:50:14.621Z,20.53
2018-07-06T04:53:19.160Z,20.55
2018-07-06T04:56:10.721Z,20.55
2018-07-06T04:59:04.563Z,20.56
2018-07-06T05:01:57.944Z,20.57
2018-07-06T05:04:54.580Z,20.60
2018-07-06T05:07:45.115Z,20.62
2018-07-06T05:10:36.901Z,20.64
2018-07-06T05:13:30.583Z,20.61
2018-07-06T05:16:21.559Z,20.55
2018-07-06T05:19:15.922Z,20.52
2018-07-06T05:22:09.199Z,20.49
2018-07-06T05:25:14.460Z,20.46
2018-07-06T05:28:14.899Z,20.43
2018-07-06T05:31:08.805Z,20.39
2018-07-06T05:34:06.398Z,20.33
2018-07-06T05:36:59.025Z,20.23
2018-07-06T05:39:52.606Z,20.19
2018-07-06T05:42:45.322Z,20.11
2018-07-06T05:45:37.698Z,20.03
2018-07-06T05:48:31.905Z,20.06
2018-07-06T05:51:29.262Z,20.08
2018-07-06T05:54:22.936Z,20.11
2018-07-06T05:57:15.661Z,20.16
2018-07-06T06:00:10.157Z,20.20
2018-07-06T06:03:10.757Z,20.27
2018-07-06T06:06:05.562Z,20.36
2018-07-06T06:08:39.904Z,20.46
2018-07-06T06:11:27.141Z,20.51
2018-07-06T06:14:07.240Z,20.56
2018-07-06T06:17:12.596Z,20.65
2018-07-06T06:19:52.085Z,20.70
2018-07-06T06:22:31.156Z,20.74
2018-07-06T06:25:13.395Z,20.77
2018-07-06T06:27:56.781Z,20.79
2018-07-06T06:30:39.545Z,20.78
2018-07-06T06:33:19.386Z,20.82
2018-07-06T06:39:04.741Z,20.86
2018-07-06T06:41:46.281Z,20.85
2018-07-06T06:44:25.499Z,20.88
2018-07-06T06:47:08.078Z,20.87
2018-07-06T06:49:55.679Z,20.85
2018-07-06T06:52:36.821Z,20.79
2018-07-06T06:55:16.938Z,20.77
2018-07-06T06:57:58.725Z,20.77
2018-07-06T07:00:52.379Z,20.73
2018-07-06T07:03:33.197Z,20.68
2018-07-06T07:06:12.980Z,20.67
2018-07-06T07:08:58.724Z,20.70
2018-07-06T07:11:41.088Z,20.73
2018-07-06T07:14:22.383Z,20.73
2018-07-06T07:17:05.081Z,20.73
2018-07-06T07:19:45.126Z,20.72
2018-07-06T07:22:33.506Z,20.74
2018-07-06T07:25:13.425Z,20.78
2018-07-06T07:27:52.697Z,20.81
2018-07-06T07:30:32.028Z,20.84
2018-07-06T07:33:12.283Z,20.86
2018-07-06T07:36:03.485Z,20.91
2018-07-06T07:38:46.711Z,20.97
2018-07-06T07:41:49.187Z,20.98
2018-07-06T07:44:44.281Z,21.01
2018-07-06T07:47:25.198Z,21.05
2018-07-06T07:50:07.280Z,21.10
2018-07-06T07:52:59.062Z,21.14
2018-07-06T07:55:39.180Z,21.18
2018-07-06T07:58:18.821Z,21.23
2018-07-06T08:01:05.994Z,21.29
2018-07-06T08:03:48.081Z,21.32
2018-07-06T08:06:38.723Z,21.33
2018-07-06T08:09:19.338Z,21.42
2018-07-06T08:12:06.180Z,21.48
2018-07-06T08:14:49.277Z,21.53
2018-07-06T08:17:38.400Z,21.57
2018-07-06T08:23:28.323Z,21.63
2018-07-06T08:26:15.541Z,21.68
2018-07-06T08:29:01.353Z,21.74
2018-07-06T08:31:48.360Z,21.81
2018-07-06T08:34:39.464Z,21.89
2018-07-06T08:37:43.664Z,21.93
2018-07-06T08:40:26.862Z,21.95
2018-07-06T08:43:10.999Z,21.98
2018-07-06T08:45:50.402Z,21.97
2018-07-06T08:48:36.098Z,22.00
2018-07-06T08:51:16.456Z,22.03
2018-07-06T08:54:03.084Z,22.10
2018-07-06T08:56:44.684Z,22.14
2018-07-06T08:59:29.082Z,22.16
2018-07-06T09:02:07.420Z,22.23
2018-07-06T09:04:53.443Z,22.26
2018-07-06T09:08:07.159Z,22.28
2018-07-06T09:10:53.059Z,22.28
2018-07-06T09:13:33.940Z,22.26
2018-07-06T09:16:34.364Z,22.24
2018-07-06T09:19:16.826Z,22.21
2018-07-06T09:21:57.538Z,22.21
2018-07-06T09:24:44.177Z,22.20
2018-07-06T09:27:25.322Z,22.22
2018-07-06T09:30:06.064Z,22.26
2018-07-06T09:32:46.486Z,22.33
2018-07-06T09:38:29.178Z,22.31
2018-07-06T09:41:34.379Z,22.20
2018-07-06T09:44:16.282Z,22.08
2018-07-06T09:46:58.096Z,21.98
2018-07-06T09:52:35.859Z,21.86
2018-07-06T09:55:22.200Z,21.89
2018-07-06T09:58:02.314Z,21.95
2018-07-06T10:01:02.917Z,22.05
2018-07-06T10:03:48.337Z,22.14
2018-07-06T10:06:29.230Z,22.20
2018-07-06T10:09:11.231Z,22.22
2018-07-06T10:11:51.643Z,22.24
2018-07-06T10:14:31.270Z,22.26
2018-07-06T10:17:14.636Z,22.28
2018-07-06T10:19:53.575Z,22.37
2018-07-06T10:22:58.273Z,22.40
2018-07-06T10:25:36.314Z,22.45
2018-07-06T10:28:42.156Z,22.53
2018-07-06T10:31:55.839Z,22.52
2018-07-06T10:34:54.523Z,22.46
2018-07-06T10:37:35.773Z,22.52
2018-07-06T10:40:18.537Z,22.67
2018-07-06T10:43:00.940Z,22.82
2018-07-06T10:45:41.291Z,22.96
2018-07-06T10:48:22.434Z,23.03
2018-07-06T10:51:07.614Z,23.14
2018-07-06T10:53:53.438Z,23.24
2018-07-06T10:56:34.673Z,23.31
2018-07-06T10:59:30.615Z,23.38
2018-07-06T11:02:28.036Z,23.43
2018-07-06T11:05:09.311Z,23.53
2018-07-06T11:07:55.114Z,23.66
2018-07-06T11:10:42.552Z,23.75
2018-07-06T11:16:12.972Z,24.04
2018-07-06T11:18:56.118Z,24.15
2018-07-06T11:21:38.817Z,24.28
2018-07-06T11:24:23.234Z,24.37
2018-07-06T11:27:11.717Z,24.37
2018-07-06T11:30:05.455Z,24.40
2018-07-06T11:32:44.752Z,24.36
2018-07-06T11:35:24.135Z,24.28
2018-07-06T11:38:07.463Z,24.26
2018-07-06T11:40:47.529Z,24.23
2018-07-06T11:43:32.252Z,24.21
2018-07-06T11:46:39.595Z,24.24
2018-07-06T11:49:17.413Z,24.23
2018-07-06T11:51:56.975Z,24.31
2018-07-06T11:54:43.851Z,24.35
2018-07-06T11:57:27.571Z,24.36
2018-07-06T12:00:09.969Z,24.42
2018-07-06T12:02:50.615Z,24.52
2018-07-06T12:05:31.094Z,24.71
2018-07-06T12:08:22.776Z,24.79
2018-07-06T12:11:13.961Z,24.97
2018-07-06T12:13:54.546Z,25.15
2018-07-06T12:16:43.969Z,25.34
2018-07-06T12:19:24.850Z,25.70
2018-07-06T12:22:06.176Z,26.08
2018-07-06T12:24:49.175Z,26.43
2018-07-06T12:27:34.988Z,26.69
2018-07-06T12:30:13.495Z,26.73
2018-07-06T12:32:56.772Z,26.61
2018-07-06T12:35:40.274Z,26.45
2018-07-06T12:38:23.156Z,26.44
2018-07-06T12:41:02.173Z,26.55
2018-07-06T12:43:50.892Z,26.63
2018-07-06T12:46:35.555Z,26.57
2018-07-06T12:49:14.831Z,26.45
2018-07-06T12:52:02.452Z,26.44
2018-07-06T12:54:52.394Z,26.68
2018-07-06T12:57:45.933Z,27.05
2018-07-06T13:00:38.992Z,27.49
2018-07-06T13:03:17.277Z,27.61
2018-07-06T13:12:01.135Z,27.35
2018-07-06T13:14:40.713Z,27.48
2018-07-06T13:17:25.449Z,27.68
2018-07-06T13:20:16.752Z,27.62
2018-07-06T13:22:58.413Z,27.43
2018-07-06T13:25:40.600Z,27.62
2018-07-06T13:28:26.673Z,27.81
2018-07-06T13:31:12.537Z,28.08
2018-07-06T13:33:59.394Z,28.12
2018-07-06T13:36:40.372Z,28.28
2018-07-06T13:39:32.049Z,28.48
2018-07-06T13:42:14.292Z,28.70
2018-07-06T13:44:55.974Z,28.90
2018-07-06T13:47:37.592Z,29.06
2018-07-06T13:50:24.799Z,29.02
2018-07-06T13:53:10.619Z,29.07
2018-07-06T13:58:40.774Z,29.07
2018-07-06T14:01:20.351Z,29.11
2018-07-06T14:04:03.577Z,29.21
2018-07-06T14:06:43.572Z,29.33
2018-07-06T14:09:27.233Z,29.47
2018-07-06T14:12:10.014Z,29.59
2018-07-06T14:20:46.196Z,29.12
2018-07-06T14:23:28.539Z,28.98
2018-07-06T14:26:07.834Z,28.90
2018-07-06T14:28:57.274Z,28.98
2018-07-06T14:31:43.270Z,29.21
2018-07-06T14:34:24.252Z,29.30
2018-07-06T14:37:05.951Z,29.45
2018-07-06T14:39:49.660Z,29.49
2018-07-06T14:42:28.363Z,29.25
2018-07-06T14:45:14.975Z,28.91
2018-07-06T14:47:54.191Z,28.54
2018-07-06T14:50:52.390Z,28.34
2018-07-06T14:53:33.253Z,28.19
2018-07-06T14:56:15.657Z,28.14
2018-07-06T14:58:54.815Z,28.27
2018-07-06T15:01:42.492Z,28.55
2018-07-06T15:04:23.751Z,28.86
2018-07-06T15:07:19.081Z,29.17
2018-07-06T15:10:00.018Z,29.42
2018-07-06T15:12:41.986Z,29.33
2018-07-06T15:15:29.230Z,29.41
2018-07-06T15:18:11.592Z,29.56
2018-07-06T15:20:54.354Z,29.73
2018-07-06T15:23:47.021Z,29.78
2018-07-06T15:26:25.677Z,29.56
2018-07-06T15:29:09.253Z,29.26
2018-07-06T15:31:51.249Z,28.94
2018-07-06T15:34:32.332Z,28.73
2018-07-06T15:37:13.317Z,28.44
2018-07-06T15:39:57.912Z,28.30
2018-07-06T15:42:59.213Z,28.39
2018-07-06T15:45:35.871Z,28.27
2018-07-06T15:48:15.435Z,28.13
2018-07-06T15:50:56.349Z,28.04
2018-07-06T15:53:36.674Z,27.94
2018-07-06T15:56:20.820Z,27.90
2018-07-06T15:59:06.156Z,27.85
2018-07-06T16:01:45.655Z,27.76
2018-07-06T16:04:39.277Z,27.97
2018-07-06T16:07:19.236Z,28.19
2018-07-06T16:10:02.998Z,28.40
2018-07-06T16:12:43.613Z,28.66
2018-07-06T16:15:22.012Z,28.79
2018-07-06T16:18:06.634Z,28.87
2018-07-06T16:20:53.907Z,28.91
2018-07-06T16:23:35.389Z,28.91
2018-07-06T16:26:14.279Z,28.88
2018-07-06T16:28:53.471Z,28.81
2018-07-06T16:31:32.131Z,28.73
2018-07-06T16:34:21.213Z,28.66
2018-07-06T16:37:02.398Z,28.52
2018-07-06T16:39:42.718Z,28.35
2018-07-06T16:42:24.315Z,28.21
2018-07-06T16:45:08.716Z,28.14
2018-07-06T16:47:50.594Z,28.09
2018-07-06T16:50:41.672Z,28.10
2018-07-06T16:53:23.433Z,28.04
2018-07-06T16:56:02.973Z,27.95
2018-07-06T16:58:45.112Z,27.87
2018-07-06T17:01:23.739Z,27.76
2018-07-06T17:04:08.257Z,27.66
2018-07-06T17:06:47.611Z,27.56
2018-07-06T17:09:31.233Z,27.47
2018-07-06T17:12:10.391Z,27.43
2018-07-06T17:14:51.552Z,27.39
2018-07-06T17:17:33.354Z,27.36
2018-07-06T17:20:17.335Z,27.29
2018-07-06T17:23:02.296Z,27.22
2018-07-06T17:25:42.196Z,27.15
2018-07-06T17:28:36.193Z,27.12
2018-07-06T17:31:15.772Z,27.04
2018-07-06T17:34:08.840Z,26.92
2018-07-06T17:36:56.036Z,26.85
2018-07-06T17:39:35.932Z,26.76
2018-07-06T17:42:15.156Z,26.68
2018-07-06T17:44:58.680Z,26.63
2018-07-06T17:47:45.535Z,26.54
2018-07-06T17:50:24.565Z,26.44
2018-07-06T17:53:07.131Z,26.37
2018-07-06T17:55:48.835Z,26.31
2018-07-06T17:58:32.401Z,26.31
2018-07-06T18:01:11.278Z,26.27
2018-07-06T18:03:49.333Z,26.21
2018-07-06T18:06:33.398Z,26.16
2018-07-06T18:09:11.855Z,26.07
2018-07-06T18:11:52.216Z,26.04
2018-07-06T18:15:02.313Z,25.97
2018-07-06T18:17:44.430Z,25.89
2018-07-06T18:20:26.391Z,25.79
2018-07-06T18:23:09.382Z,25.72
2018-07-06T18:25:50.375Z,25.68
2018-07-06T18:28:30.910Z,25.67
2018-07-06T18:31:14.857Z,25.62
2018-07-06T18:33:59.194Z,25.57
2018-07-06T18:36:37.434Z,25.49
2018-07-06T18:39:15.593Z,25.41
2018-07-06T18:41:53.153Z,25.37
2018-07-06T18:44:31.657Z,25.35
2018-07-06T18:47:14.451Z,25.34
2018-07-06T18:49:54.773Z,25.35
2018-07-06T18:52:44.859Z,25.36
2018-07-06T18:55:22.477Z,25.31
2018-07-06T18:58:10.749Z,25.22
2018-07-06T19:00:54.190Z,25.13
2018-07-06T19:03:42.031Z,25.06
2018-07-06T19:06:25.031Z,24.98
2018-07-06T22:35:40.915Z,19.73
2018-07-06T22:38:22.797Z,19.68
2018-07-06T22:41:05.322Z,19.62
